Terminal Aerodrome Forecast
Issued by NWS

Home | Current Version | Previous Version | Graphics & Text | Print | Product List | Glossary On
Versions: 1 2 3 4 5 6 7 8 9 10 11 12 13
000
FTUS41 KCLE 221600 AAB
TAFFDY
TAF AMD
KFDY 221603Z 2216/2312 27015G28KT P6SM SCT030 OVC040
      TEMPO 2216/2220 BKN025
     FM230200 27012KT P6SM OVC025=

USA.gov is the U.S. government's official web portal to all federal, state and local government web resources and services.